Time;durP1;ratioP1;P1;durP2;ratioP2;P2;SDS_P1;SDS_P2;PMS_P1;PMS_P2;Temp;Humidity;BMP_temperature;BMP_pressure;BME280_temperature;BME280_humidity;BME280_pressure;Samples;Min_cycle;Max_cycle;Signal;HPM_P1;HPM_P2
2022/01/19 07:49:13;;;;;;;;;42.00;34.00;;;;;6.24;70.30;102145.94;5460810;23;45397;-49
2022/01/19 07:51:38;;;;;;;;;49.00;42.75;;;;;6.23;70.47;102146.09;4865321;29;46974;-49
2022/01/19 07:54:04;;;;;;;;;47.50;38.75;;;;;6.17;70.13;102141.22;4879143;29;45443;-50
2022/01/19 07:56:29;;;;;;;;;44.50;37.50;;;;;6.47;70.76;102188.34;4862845;29;45547;-51
2022/01/19 07:58:55;;;;;;;;;41.50;38.75;;;;;6.41;70.92;102197.97;4881381;29;45334;-49
2022/01/19 08:01:20;;;;;;;;;39.25;37.25;;;;;6.44;70.47;102191.38;4881313;29;45416;-52
2022/01/19 08:03:46;;;;;;;;;39.00;34.00;;;;;6.42;70.82;102190.66;4881687;29;45466;-52
2022/01/19 08:06:11;;;;;;;;;41.75;33.75;;;;;6.49;70.25;102183.59;4863491;29;45442;-50
2022/01/19 08:08:37;;;;;;;;;34.50;27.50;;;;;6.27;70.62;102152.09;4881546;29;45415;-50
2022/01/19 08:11:03;;;;;;;;;40.25;36.25;;;;;6.42;70.62;102180.63;4847284;29;46465;-53
2022/01/19 08:13:30;;;;;;;;;38.20;32.00;;;;;6.53;70.38;102181.44;4864669;29;51234;-52
2022/01/19 08:15:55;;;;;;;;;47.00;40.00;;;;;6.56;70.90;102195.63;4861786;29;45762;-53
2022/01/19 08:18:21;;;;;;;;;46.00;35.00;;;;;6.60;71.06;102186.16;4880518;29;45329;-49
2022/01/19 08:20:46;;;;;;;;;34.00;29.75;;;;;6.60;70.83;102193.47;4878747;29;45706;-51
2022/01/19 08:23:12;;;;;;;;;34.75;32.25;;;;;6.60;70.54;102183.44;4851825;29;45565;-52
2022/01/19 08:25:38;;;;;;;;;45.50;40.75;;;;;6.58;70.53;102188.19;4855569;29;45546;-52
2022/01/19 08:28:04;;;;;;;;;40.00;29.50;;;;;6.58;70.90;102193.63;4859142;29;45398;-53
2022/01/19 08:30:29;;;;;;;;;41.50;33.00;;;;;6.54;71.13;102197.66;4867780;29;45455;-54
2022/01/19 08:32:55;;;;;;;;;32.00;30.50;;;;;6.53;70.80;102205.97;4876340;29;45479;-52
2022/01/19 08:35:20;;;;;;;;;34.50;29.00;;;;;6.53;71.11;102201.41;4874568;29;45878;-54
2022/01/19 08:37:46;;;;;;;;;44.75;31.75;;;;;6.54;70.81;102210.44;4876443;29;45816;-53
2022/01/19 08:40:12;;;;;;;;;36.75;32.00;;;;;6.58;70.27;102212.72;4874925;29;46405;-49
2022/01/19 08:42:38;;;;;;;;;38.80;34.40;;;;;6.59;70.42;102217.19;4876253;29;45365;-50
2022/01/19 08:45:08;;;;;;;;;43.50;36.75;;;;;6.63;70.50;102212.28;4873020;29;45856;-50
2022/01/19 08:47:37;;;;;;;;;40.80;30.60;;;;;6.59;70.90;102214.44;4876183;29;45410;-51
2022/01/19 08:50:06;;;;;;;;;42.40;35.40;;;;;6.67;70.66;102218.28;4876383;29;46221;-54
2022/01/19 08:52:33;;;;;;;;;37.20;32.40;;;;;6.61;70.10;102215.16;4861354;29;45423;-50
2022/01/19 08:54:59;;;;;;;;;34.40;31.20;;;;;6.69;70.62;102219.88;4855451;29;45473;-51
2022/01/19 08:57:25;;;;;;;;;27.25;26.00;;;;;6.69;70.75;102229.91;4874739;29;45495;-54
2022/01/19 08:59:50;;;;;;;;;42.50;38.25;;;;;6.59;71.04;102239.00;4874652;29;45915;-54
2022/01/19 09:02:16;;;;;;;;;36.00;33.25;;;;;6.61;70.01;102236.97;4858815;29;45473;-51
2022/01/19 09:04:42;;;;;;;;;33.25;28.25;;;;;6.61;70.37;102239.69;4874989;29;45550;-52
2022/01/19 09:07:07;;;;;;;;;35.50;28.75;;;;;6.64;70.35;102233.09;4876373;29;45731;-54
2022/01/19 09:09:33;;;;;;;;;29.00;24.25;;;;;6.70;70.53;102232.50;4875958;29;45450;-56
2022/01/19 09:11:58;;;;;;;;;43.50;35.25;;;;;6.38;70.15;102187.38;4872930;29;45661;-53
2022/01/19 09:14:24;;;;;;;;;36.75;32.00;;;;;6.73;70.41;102236.81;4861791;29;45452;-50
2022/01/19 09:16:49;;;;;;;;;40.50;32.25;;;;;6.74;69.90;102241.25;4879785;29;45502;-48
2022/01/19 09:19:16;;;;;;;;;38.50;29.25;;;;;6.73;70.37;102250.44;4860002;29;47130;-49
2022/01/19 09:21:41;;;;;;;;;38.80;32.40;;;;;6.72;69.98;102248.72;4861443;29;45421;-49
2022/01/19 09:24:09;;;;;;;;;38.00;32.75;;;;;6.70;70.03;102235.22;4882228;29;45567;-49
2022/01/19 09:26:34;;;;;;;;;34.00;29.40;;;;;6.71;70.30;102245.13;4868172;29;45585;-49
2022/01/19 09:29:00;;;;;;;;;32.75;25.75;;;;;6.55;70.14;102202.09;4885262;29;45513;-53
2022/01/19 09:31:25;;;;;;;;;46.00;34.00;;;;;6.73;70.27;102228.63;4881860;29;45323;-53
2022/01/19 09:34:08;;;;;;;;;38.25;33.75;;;;;6.80;70.06;102237.91;4881771;29;45426;-53
2022/01/19 09:36:36;;;;;;;;;37.20;30.00;;;;;6.74;70.28;102250.28;4898896;29;45295;-51
2022/01/19 09:39:03;;;;;;;;;38.00;27.00;;;;;6.78;69.92;102242.69;4881896;29;45762;-51
2022/01/19 09:41:29;;;;;;;;;41.60;31.60;;;;;6.83;69.78;102251.25;4893097;29;45411;-55
2022/01/19 09:43:55;;;;;;;;;44.25;34.00;;;;;6.87;70.02;102251.81;4879715;29;45372;-53
2022/01/19 09:46:20;;;;;;;;;38.60;30.80;;;;;6.89;69.62;102252.53;4845137;29;45564;-55
2022/01/19 09:48:46;;;;;;;;;42.50;32.25;;;;;6.64;68.93;102205.81;4875410;29;46120;-52
2022/01/19 09:51:12;;;;;;;;;34.50;32.50;;;;;6.85;69.51;102243.78;4882437;29;45402;-52
2022/01/19 09:53:38;;;;;;;;;35.00;30.40;;;;;6.86;69.25;102239.16;4877144;29;45485;-54
2022/01/19 09:56:03;;;;;;;;;38.25;34.25;;;;;6.83;70.00;102245.78;4894437;29;45490;-53
2022/01/19 09:58:29;;;;;;;;;43.25;31.50;;;;;6.63;69.41;102202.22;4889160;29;45892;-55
2022/01/19 10:00:54;;;;;;;;;38.00;36.25;;;;;6.86;69.83;102245.50;4875205;29;45482;-56
2022/01/19 10:03:22;;;;;;;;;34.25;25.50;;;;;6.82;69.09;102227.69;4882485;29;45633;-52
2022/01/19 10:05:54;;;;;;;;;35.40;26.00;;;;;6.67;69.85;102194.59;4894109;29;45930;-55
2022/01/19 10:08:47;;;;;;;;;42.00;35.00;;;;;6.90;69.68;102244.19;4885297;29;47662;-57
2022/01/19 10:11:27;;;;;;;;;40.80;34.60;;;;;6.93;69.51;102244.91;4839051;29;45538;-54
2022/01/19 10:17:10;;;;;;;;;49.80;38.60;;;;;6.83;69.24;102240.31;4865794;29;45936;-58
2022/01/19 10:19:41;;;;;;;;;38.40;33.00;;;;;6.82;69.36;102254.16;4874885;29;46900;-52
2022/01/19 10:22:14;;;;;;;;;41.40;34.40;;;;;6.69;69.16;102219.88;4873956;29;45403;-51
2022/01/19 10:24:52;;;;;;;;;39.60;35.60;;;;;6.86;69.61;102241.91;4886106;29;45446;-56
2022/01/19 10:27:42;;;;;;;;;42.40;37.80;;;;;6.81;69.85;102233.31;4894004;29;45566;-54
2022/01/19 10:30:08;;;;;;;;;42.40;38.40;;;;;6.45;70.17;102185.78;4868092;29;46439;-54
2022/01/19 10:32:42;;;;;;;;;41.00;34.25;;;;;6.71;70.62;102244.25;4874783;29;45466;-55
2022/01/19 10:35:29;;;;;;;;;47.40;40.80;;;;;6.74;70.38;102241.25;4873548;29;45745;-55
2022/01/19 10:38:27;;;;;;;;;43.60;33.20;;;;;6.55;70.52;102213.00;4875040;29;45366;-55
2022/01/19 10:40:57;;;;;;;;;46.80;38.20;;;;;6.78;70.09;102250.88;4872817;29;46300;-52
2022/01/19 10:43:26;;;;;;;;;51.80;41.60;;;;;6.77;70.28;102236.34;4893451;29;45453;-53
2022/01/19 10:45:51;;;;;;;;;47.60;31.80;;;;;6.54;70.53;102200.38;4887090;28;45525;-54
2022/01/19 10:48:30;;;;;;;;;48.75;41.00;;;;;6.80;70.54;102231.59;4882812;29;45484;-53
2022/01/19 10:51:08;;;;;;;;;53.00;41.80;;;;;6.87;70.74;102229.97;4876635;29;45693;-55
2022/01/19 10:53:33;;;;;;;;;43.20;36.60;;;;;6.88;70.40;102229.81;4858608;29;45706;-54
2022/01/19 10:56:01;;;;;;;;;58.50;43.75;;;;;6.84;69.90;102224.81;4877638;29;45491;-50
2022/01/19 10:58:27;;;;;;;;;47.25;41.75;;;;;6.83;70.32;102223.13;4877558;29;45426;-51
2022/01/19 11:00:54;;;;;;;;;56.25;42.50;;;;;6.47;70.83;102182.91;4889395;29;45885;-53
2022/01/19 11:03:25;;;;;;;;;51.60;44.40;;;;;6.75;71.06;102211.09;4878759;29;45565;-53
2022/01/19 11:05:55;;;;;;;;;66.40;51.80;;;;;6.60;71.25;102194.34;4865576;29;45504;-51
2022/01/19 11:08:22;;;;;;;;;58.75;46.00;;;;;6.68;71.66;102218.16;4841545;29;45450;-49
2022/01/19 11:10:49;;;;;;;;;62.00;46.50;;;;;6.69;71.38;102205.34;4842834;29;47510;-51
2022/01/19 11:15:52;;;;;;;;;55.00;47.25;;;;;6.69;70.85;102191.72;4878836;29;45519;-54
2022/01/19 11:18:19;;;;;;;;;66.75;50.00;;;;;6.81;71.12;102208.75;4896256;29;45357;-53
2022/01/19 11:20:46;;;;;;;;;55.00;41.75;;;;;6.78;70.67;102213.50;4896001;29;46435;-54
2022/01/19 11:23:30;;;;;;;;;57.40;44.80;;;;;6.12;71.01;102116.28;4892967;29;45429;-55
2022/01/19 11:26:14;;;;;;;;;66.25;47.25;;;;;6.73;71.51;102204.06;4877258;29;45458;-55
2022/01/19 11:28:46;;;;;;;;;59.75;45.50;;;;;6.75;71.42;102207.47;4878407;29;45407;-53
2022/01/19 11:31:22;;;;;;;;;56.75;44.25;;;;;6.74;71.91;102200.31;4860197;29;46468;-53
2022/01/19 11:33:51;;;;;;;;;60.20;46.00;;;;;6.78;71.52;102191.66;4876338;29;45473;-50
2022/01/19 11:36:18;;;;;;;;;61.20;49.00;;;;;6.77;71.42;102189.06;4875157;29;45383;-53
2022/01/19 11:38:45;;;;;;;;;64.75;45.00;;;;;6.73;72.31;102193.13;4876781;29;45314;-49
2022/01/19 11:41:10;;;;;;;;;63.60;47.40;;;;;6.78;72.22;102186.22;4876725;29;45984;-52
2022/01/19 11:43:37;;;;;;;;;61.25;49.00;;;;;6.83;71.66;102179.44;4876515;29;45915;-51
2022/01/19 11:46:04;;;;;;;;;65.00;46.60;;;;;6.78;72.18;102183.47;4868433;28;45517;-53
2022/01/19 11:48:33;;;;;;;;;54.50;43.25;;;;;6.81;71.80;102192.38;4864359;29;45397;-52
2022/01/19 11:51:28;;;;;;;;;60.25;43.50;;;;;6.82;71.80;102175.84;4876463;29;46256;-57
2022/01/19 11:54:00;;;;;;;;;54.20;44.40;;;;;6.82;71.61;102170.38;4877279;29;45336;-49
2022/01/19 11:56:25;;;;;;;;;54.80;40.20;;;;;6.80;71.94;102158.78;4876484;29;45488;-50
2022/01/19 11:59:06;;;;;;;;;61.00;46.75;;;;;6.66;72.21;102129.28;4877660;29;45455;-50
2022/01/19 12:01:31;;;;;;;;;52.50;44.75;;;;;6.88;72.14;102166.22;4843581;29;45505;-51
2022/01/19 12:04:12;;;;;;;;;53.00;42.75;;;;;6.66;71.57;102121.09;4875700;29;45999;-52
2022/01/19 12:06:38;;;;;;;;;53.20;44.20;;;;;6.88;71.20;102167.06;4876726;29;45528;-51
2022/01/19 12:09:06;;;;;;;;;44.40;40.20;;;;;6.88;71.96;102158.88;4877508;28;45469;-56
2022/01/19 12:11:34;;;;;;;;;36.80;36.60;;;;;6.72;71.62;102139.56;4856465;29;46685;-50
2022/01/19 12:17:04;;;;;;;;;41.60;38.20;;;;;6.64;71.41;102130.28;4872600;29;45598;-53
2022/01/19 12:19:41;;;;;;;;;47.00;38.80;;;;;6.76;71.56;102146.44;4846348;29;45429;-52
2022/01/19 12:22:20;;;;;;;;;47.80;34.00;;;;;6.82;71.12;102134.91;4861589;29;46196;-55
2022/01/19 12:25:11;;;;;;;;;34.60;32.80;;;;;6.83;71.28;102139.34;4860572;29;45408;-52
2022/01/19 12:27:38;;;;;;;;;49.00;38.00;;;;;6.67;71.19;102109.16;4876685;29;45331;-53
2022/01/19 12:30:14;;;;;;;;;39.60;35.40;;;;;6.91;71.38;102135.88;4860126;29;45417;-53
2022/01/19 12:32:45;;;;;;;;;39.80;32.00;;;;;6.43;71.18;102045.09;4859387;29;46204;-52
2022/01/19 12:35:13;;;;;;;;;37.80;31.40;;;;;6.72;70.88;102095.91;4876549;29;45370;-50
2022/01/19 12:37:44;;;;;;;;;25.80;25.60;;;;;6.94;71.26;102137.44;4858849;29;45434;-50
2022/01/19 12:40:13;;;;;;;;;41.80;31.80;;;;;6.77;71.12;102102.63;4869699;29;45487;-50
2022/01/19 12:42:45;;;;;;;;;40.00;33.60;;;;;6.78;71.11;102096.16;4895144;29;46276;-54
2022/01/19 12:45:15;;;;;;;;;36.60;32.00;;;;;7.03;70.96;102131.91;4869600;28;45468;-50
2022/01/19 12:47:40;;;;;;;;;51.60;38.40;;;;;7.09;70.48;102129.56;4895145;29;45711;-50
2022/01/19 12:50:08;;;;;;;;;32.00;28.25;;;;;7.10;70.57;102125.84;4878204;29;46023;-51
2022/01/19 12:52:54;;;;;;;;;30.40;26.40;;;;;7.12;70.57;102121.06;4876594;29;45819;-48
2022/01/19 12:55:20;;;;;;;;;38.40;32.00;;;;;7.09;70.09;102111.31;4876270;29;45854;-49
2022/01/19 12:57:46;;;;;;;;;35.20;31.80;;;;;7.09;70.10;102105.84;4876076;29;45531;-50
2022/01/19 13:00:14;;;;;;;;;36.20;30.80;;;;;7.08;70.34;102104.13;4844513;29;45826;-51
2022/01/19 13:02:40;;;;;;;;;37.40;28.60;;;;;7.08;70.61;102104.13;4874995;29;46656;-52
2022/01/19 13:05:07;;;;;;;;;30.25;24.00;;;;;7.14;70.71;102111.72;4870201;29;45593;-47
2022/01/19 13:07:35;;;;;;;;;25.40;24.80;;;;;7.22;70.09;102100.00;4875169;29;45661;-51
2022/01/19 13:10:27;;;;;;;;;39.40;27.80;;;;;7.26;69.85;102092.38;4845595;28;45558;-50
2022/01/19 13:13:07;;;;;;;;;27.80;23.40;;;;;7.28;69.84;102093.06;4858801;29;45509;-54
2022/01/19 13:15:49;;;;;;;;;30.40;26.60;;;;;7.27;69.88;102094.06;4875935;29;45366;-52
2022/01/19 13:18:18;;;;;;;;;27.60;26.00;;;;;7.35;69.50;102101.50;4875164;29;45416;-48
2022/01/19 13:20:54;;;;;;;;;30.80;23.00;;;;;7.36;69.09;102105.94;4858256;29;45585;-49
2022/01/19 13:23:19;;;;;;;;;42.40;38.00;;;;;7.39;69.79;102109.22;4864923;29;49159;-56
2022/01/19 13:25:46;;;;;;;;;26.00;26.00;;;;;7.19;69.35;102103.91;4848330;29;45853;-50
2022/01/19 13:28:11;;;;;;;;;25.40;21.40;;;;;7.22;69.36;102108.22;4823759;29;45364;-51
2022/01/19 13:30:39;;;;;;;;;30.75;26.25;;;;;7.08;69.63;102084.16;4840577;29;45543;-49
2022/01/19 13:33:09;;;;;;;;;29.40;25.40;;;;;7.27;69.55;102115.94;4849739;29;47582;-49
2022/01/19 13:35:34;;;;;;;;;35.60;26.60;;;;;7.27;69.49;102111.31;4856194;29;45459;-52
2022/01/19 13:38:00;;;;;;;;;23.00;20.25;;;;;7.22;68.94;102118.25;4855779;29;45928;-52
2022/01/19 13:40:31;;;;;;;;;18.25;10.25;;;;;7.13;69.29;102118.19;4857746;29;45572;-49
2022/01/19 13:43:03;;;;;;;;;29.60;27.00;;;;;7.10;69.40;102112.19;4873241;29;47671;-51
2022/01/19 13:50:39;;;;;;;;;29.20;25.00;;;;;6.53;71.02;102007.72;4872505;29;45870;-54
2022/01/19 13:53:04;;;;;;;;;33.60;24.80;;;;;7.14;70.92;102091.72;4870775;29;45759;-50
2022/01/19 13:55:30;;;;;;;;;35.75;28.25;;;;;7.08;70.70;102095.06;4874985;29;45597;-52
2022/01/19 13:58:12;;;;;;;;;27.75;23.00;;;;;7.10;70.65;102087.59;4874740;29;45512;-51
2022/01/19 14:00:59;;;;;;;;;37.00;26.80;;;;;7.18;71.06;102093.13;4842239;29;46455;-49
2022/01/19 14:03:26;;;;;;;;;39.00;28.40;;;;;7.18;72.00;102088.53;4871122;29;46404;-50
2022/01/19 14:05:53;;;;;;;;;28.60;26.20;;;;;7.15;72.04;102082.53;4881669;29;45385;-50
2022/01/19 14:08:29;;;;;;;;;30.40;26.80;;;;;7.13;72.35;102090.88;4874526;29;45456;-52
2022/01/19 14:10:55;;;;;;;;;25.40;24.80;;;;;7.15;73.01;102083.38;4845721;29;46045;-48
2022/01/19 14:13:28;;;;;;;;;32.50;24.75;;;;;7.07;72.90;102075.13;4872629;29;45736;-52
2022/01/19 14:15:55;;;;;;;;;30.00;27.40;;;;;7.13;73.30;102079.97;4842620;29;45440;-51
2022/01/19 14:18:21;;;;;;;;;27.80;27.80;;;;;7.15;73.02;102057.97;4878347;29;45739;-49
2022/01/19 14:21:04;;;;;;;;;33.25;31.00;;;;;7.23;73.05;102059.88;4879012;29;45589;-54
2022/01/19 14:23:29;;;;;;;;;26.60;22.80;;;;;7.19;72.82;102049.28;4846602;29;47804;-52
2022/01/19 14:26:06;;;;;;;;;29.50;27.50;;;;;7.35;73.24;102035.94;4859582;29;45496;-51
2022/01/19 14:28:32;;;;;;;;;42.20;29.80;;;;;6.80;72.52;101931.38;4878175;29;45481;-52
2022/01/19 14:31:05;;;;;;;;;30.00;27.60;;;;;7.48;72.15;102036.38;4845783;29;45470;-54
2022/01/19 14:33:30;;;;;;;;;35.60;29.20;;;;;7.49;72.48;102049.03;4859686;29;45841;-48
2022/01/19 14:35:57;;;;;;;;;24.75;23.50;;;;;7.43;72.25;102036.00;4860738;29;45746;-51
2022/01/19 14:38:35;;;;;;;;;33.60;25.80;;;;;7.44;72.27;102044.03;4876460;29;45345;-48
2022/01/19 14:41:21;;;;;;;;;29.40;23.40;;;;;7.41;72.11;102029.81;4876035;29;45565;-52
2022/01/19 14:43:57;;;;;;;;;27.60;27.40;;;;;7.21;72.09;101997.25;4875993;29;46435;-50
2022/01/19 14:46:45;;;;;;;;;33.20;31.80;;;;;7.42;71.54;102021.47;4877580;29;45454;-51
2022/01/19 14:49:11;;;;;;;;;27.80;26.00;;;;;7.46;71.72;102028.34;4875930;29;45751;-50
2022/01/19 14:51:39;;;;;;;;;35.00;25.50;;;;;7.51;71.73;102026.97;4876358;29;45760;-50
2022/01/19 14:54:05;;;;;;;;;30.20;26.80;;;;;7.51;71.71;102026.97;4844796;29;45687;-49
2022/01/19 14:56:31;;;;;;;;;40.40;25.80;;;;;7.48;71.46;102022.72;4878728;29;45624;-51
2022/01/19 14:59:08;;;;;;;;;31.40;25.20;;;;;7.41;71.97;102017.03;4879072;29;45547;-51
2022/01/19 15:01:35;;;;;;;;;36.60;28.40;;;;;7.28;71.74;101990.16;4853839;29;45895;-50
2022/01/19 15:04:01;;;;;;;;;24.20;23.00;;;;;7.49;71.75;102021.69;4885036;29;45643;-51
2022/01/19 15:06:27;;;;;;;;;26.20;24.40;;;;;7.45;71.66;102017.56;4890390;29;46095;-52
2022/01/19 15:08:52;;;;;;;;;31.50;22.00;;;;;7.31;71.30;101986.25;4896499;29;45664;-50
2022/01/19 15:11:18;;;;;;;;;30.00;26.25;;;;;7.44;71.52;102003.06;4851631;28;45784;-50
2022/01/19 15:13:44;;;;;;;;;32.20;24.20;;;;;7.45;71.45;101993.84;4860114;29;46069;-54
2022/01/19 15:16:10;;;;;;;;;26.80;23.20;;;;;7.46;71.43;101976.44;4876477;29;45796;-52
2022/01/19 15:18:36;;;;;;;;;33.50;30.75;;;;;7.45;71.21;101977.44;4877132;29;45526;-51
2022/01/19 15:21:02;;;;;;;;;37.20;23.00;;;;;7.28;71.21;101948.31;4860674;29;45545;-48
2022/01/19 15:23:27;;;;;;;;;25.75;23.75;;;;;7.46;70.86;101970.09;4859925;29;45892;-55
2022/01/19 15:25:53;;;;;;;;;31.75;29.00;;;;;7.47;71.26;101969.06;4876370;29;45841;-50
2022/01/19 15:28:18;;;;;;;;;36.50;28.50;;;;;7.48;71.12;101975.41;4869783;29;45528;-54
2022/01/19 15:30:44;;;;;;;;;32.50;27.50;;;;;7.44;71.55;101983.06;4876959;29;45397;-52
2022/01/19 15:33:10;;;;;;;;;27.00;24.00;;;;;7.23;71.49;101954.25;4874915;29;47436;-52
2022/01/19 15:35:37;;;;;;;;;31.50;25.50;;;;;7.44;70.96;101992.13;4877102;29;45323;-51
2022/01/19 15:38:04;;;;;;;;;32.00;22.60;;;;;7.44;71.17;101997.59;4877029;29;45536;-52
2022/01/19 15:40:29;;;;;;;;;31.80;27.40;;;;;7.21;71.20;101952.69;4875626;29;45680;-52
2022/01/19 15:42:57;;;;;;;;;26.75;26.00;;;;;7.45;71.22;102002.03;4859588;29;46315;-49
2022/01/19 15:45:22;;;;;;;;;35.60;29.60;;;;;7.41;70.86;101994.31;4877265;29;45887;-48
2022/01/19 15:47:48;;;;;;;;;31.50;27.75;;;;;7.40;70.68;101989.84;4859288;29;45404;-48
2022/01/19 15:50:14;;;;;;;;;34.50;29.00;;;;;7.41;71.12;101980.63;4876655;29;45356;-52
2022/01/19 15:52:40;;;;;;;;;31.00;28.00;;;;;7.39;70.87;101988.16;4875114;29;46131;-50
2022/01/19 15:55:07;;;;;;;;;41.00;30.00;;;;;7.39;70.95;101999.94;4850963;29;45409;-50
2022/01/19 15:57:32;;;;;;;;;31.40;27.20;;;;;7.18;71.33;101972.97;4895829;29;45929;-53
2022/01/19 15:59:58;;;;;;;;;28.75;25.50;;;;;7.35;71.09;101995.81;4872889;29;45501;-52
2022/01/19 16:02:24;;;;;;;;;35.50;31.50;;;;;7.38;71.16;102017.34;4852298;29;45538;-54
2022/01/19 16:04:50;;;;;;;;;40.25;29.00;;;;;7.18;70.91;101984.78;4875812;29;45877;-56
2022/01/19 16:07:15;;;;;;;;;33.25;26.75;;;;;7.40;70.75;102022.63;4871608;29;45878;-53
2022/01/19 16:09:41;;;;;;;;;40.75;32.00;;;;;7.39;70.98;102019.06;4857902;29;45475;-49
2022/01/19 16:12:06;;;;;;;;;39.75;27.50;;;;;7.38;71.09;102014.63;4828134;29;46160;-53
2022/01/19 16:14:32;;;;;;;;;31.75;29.00;;;;;7.37;70.98;102022.97;4879603;29;45644;-51
2022/01/19 16:16:57;;;;;;;;;33.50;29.00;;;;;7.35;71.30;102031.31;4880438;29;45308;-49
2022/01/19 16:19:23;;;;;;;;;34.25;28.75;;;;;7.25;70.86;102036.88;4879660;29;45636;-49
2022/01/19 16:21:49;;;;;;;;;33.25;29.00;;;;;7.21;71.09;102043.69;4880539;29;46337;-51
2022/01/19 16:26:59;;;;;;;;;38.00;33.80;;;;;7.22;71.16;102036.34;4881108;29;45372;-52
2022/01/19 16:29:25;;;;;;;;;25.50;22.25;;;;;7.18;71.75;102023.00;4880680;29;45410;-54
2022/01/19 16:31:51;;;;;;;;;37.25;30.75;;;;;7.31;71.22;102043.59;4880976;29;45472;-51
2022/01/19 16:34:16;;;;;;;;;28.80;26.80;;;;;6.61;70.81;101930.53;4880415;29;45382;-51
2022/01/19 16:36:44;;;;;;;;;29.00;24.50;;;;;7.27;70.90;102047.66;4874854;29;45696;-52
2022/01/19 16:39:10;;;;;;;;;40.60;33.20;;;;;7.27;71.18;102047.66;4881077;29;45429;-51
2022/01/19 16:41:36;;;;;;;;;36.00;30.25;;;;;7.21;71.05;102031.88;4879666;29;46475;-49
2022/01/19 16:44:04;;;;;;;;;53.75;41.25;;;;;7.14;71.06;102001.63;4861852;29;45440;-54
2022/01/19 16:46:30;;;;;;;;;30.20;28.40;;;;;7.26;70.75;102038.59;4863096;29;45411;-53
2022/01/19 16:49:02;;;;;;;;;35.50;32.00;;;;;7.27;71.50;102039.44;4847146;29;45605;-51
2022/01/19 16:51:28;;;;;;;;;29.40;25.60;;;;;7.28;71.56;102052.09;4878736;29;45410;-51
2022/01/19 16:53:53;;;;;;;;;30.75;29.00;;;;;7.25;71.54;102042.34;4879993;29;45841;-49
2022/01/19 16:56:19;;;;;;;;;33.00;23.50;;;;;7.12;71.82;102022.75;4896426;29;45320;-51
2022/01/19 16:58:45;;;;;;;;;36.50;31.00;;;;;7.31;71.83;102040.88;4881717;29;45340;-50
2022/01/19 17:01:10;;;;;;;;;36.40;34.00;;;;;7.33;71.93;102047.00;4898573;29;46543;-52
2022/01/19 17:03:36;;;;;;;;;45.00;35.75;;;;;7.29;71.94;102041.00;4881262;29;45531;-47
2022/01/19 17:06:06;;;;;;;;;33.75;33.50;;;;;7.25;71.59;102038.75;4874268;29;45367;-51
2022/01/19 17:08:31;;;;;;;;;30.00;28.20;;;;;7.26;72.48;102044.03;4879763;29;45338;-50
2022/01/19 17:10:59;;;;;;;;;40.00;35.75;;;;;7.27;72.65;102051.22;4872241;29;45421;-52
2022/01/19 17:13:35;;;;;;;;;31.60;30.40;;;;;7.25;72.06;102055.16;4876442;29;45339;-53
2022/01/19 17:16:14;;;;;;;;;40.20;34.00;;;;;7.31;72.51;102065.44;4880010;29;45439;-50
2022/01/19 17:18:39;;;;;;;;;35.20;30.00;;;;;7.33;72.42;102066.97;4879454;29;46150;-55
2022/01/19 17:21:05;;;;;;;;;31.00;27.50;;;;;7.34;73.09;102059.66;4879637;29;45535;-52
2022/01/19 17:23:31;;;;;;;;;38.75;32.00;;;;;7.39;72.07;102060.03;4861912;29;45549;-50
2022/01/19 17:25:58;;;;;;;;;37.50;32.50;;;;;6.94;73.48;101976.38;4878953;29;45311;-50
2022/01/19 17:28:24;;;;;;;;;36.20;30.80;;;;;7.39;72.28;102031.84;4880501;29;45429;-54
2022/01/19 17:30:50;;;;;;;;;31.40;28.00;;;;;7.46;71.97;102060.25;4879655;29;46803;-50
2022/01/19 17:33:16;;;;;;;;;38.00;32.50;;;;;7.40;71.80;102041.75;4880053;29;45239;-49
2022/01/19 17:35:41;;;;;;;;;35.25;28.75;;;;;7.37;72.16;102047.56;4879861;29;45723;-49
2022/01/19 17:38:07;;;;;;;;;41.25;34.00;;;;;7.24;72.35;102023.38;4879959;29;45319;-52
2022/01/19 17:40:32;;;;;;;;;40.25;35.00;;;;;7.19;72.59;102024.72;4879751;29;46329;-50
2022/01/19 17:42:58;;;;;;;;;49.75;37.25;;;;;7.36;72.59;102056.78;4879865;29;45494;-51
2022/01/19 17:45:34;;;;;;;;;25.50;22.00;;;;;7.31;72.99;102057.25;4880169;29;45410;-53
2022/01/19 17:53:09;;;;;;;;;39.40;31.80;;;;;7.24;73.03;102062.47;4879864;29;45410;-53
2022/01/19 17:55:34;;;;;;;;;40.50;34.25;;;;;7.22;73.18;102050.00;4880235;29;45402;-54
2022/01/19 17:58:00;;;;;;;;;38.75;27.25;;;;;7.27;73.04;102048.50;4880179;29;45306;-55
2022/01/19 18:00:26;;;;;;;;;43.75;34.50;;;;;7.21;73.39;102040.09;4879758;29;46230;-54
2022/01/19 18:02:52;;;;;;;;;47.80;31.40;;;;;7.35;73.20;102061.38;4879368;29;45244;-53
2022/01/19 18:05:18;;;;;;;;;37.00;31.20;;;;;7.30;72.70;102055.50;4879846;29;45352;-56
2022/01/19 18:07:43;;;;;;;;;36.50;32.75;;;;;7.30;72.77;102070.03;4896988;29;45659;-52
2022/01/19 18:10:09;;;;;;;;;44.25;36.75;;;;;7.26;72.52;102060.44;4881811;29;45604;-53
2022/01/19 18:12:34;;;;;;;;;38.25;28.50;;;;;7.31;72.46;102066.28;4898504;29;45422;-53
2022/01/19 18:15:01;;;;;;;;;33.25;31.00;;;;;7.33;72.94;102069.72;4881587;29;45362;-53
2022/01/19 18:17:27;;;;;;;;;41.60;32.40;;;;;7.31;72.81;102058.09;4898497;29;45432;-54
2022/01/19 18:19:52;;;;;;;;;32.00;29.25;;;;;7.27;72.65;102066.75;4861204;29;46478;-62
2022/01/19 18:22:18;;;;;;;;;32.75;29.00;;;;;7.19;72.61;102057.50;4842253;29;45679;-53
2022/01/19 18:24:43;;;;;;;;;26.50;21.50;;;;;7.09;73.51;102058.59;4849924;29;45546;-56
2022/01/19 18:27:09;;;;;;;;;37.25;30.25;;;;;7.17;73.27;102067.69;4867371;29;45598;-57
2022/01/19 18:29:35;;;;;;;;;38.25;30.25;;;;;7.14;73.43;102062.56;4883752;29;45616;-56
2022/01/19 18:32:01;;;;;;;;;43.25;32.00;;;;;7.20;73.56;102069.25;4893937;29;45564;-56
2022/01/19 18:34:26;;;;;;;;;37.75;29.50;;;;;7.07;74.31;102055.13;4893835;29;45460;-55
2022/01/19 18:36:53;;;;;;;;;42.25;31.50;;;;;7.13;74.83;102059.97;4894438;29;45487;-57
2022/01/19 18:39:18;;;;;;;;;33.20;28.80;;;;;6.88;74.54;102029.75;4878289;29;45585;-54
2022/01/19 18:41:44;;;;;;;;;34.75;31.75;;;;;6.99;74.97;102055.94;4866312;29;45478;-56
2022/01/19 18:44:09;;;;;;;;;36.25;29.25;;;;;7.04;74.84;102059.03;4876812;29;45508;-53
2022/01/19 18:46:35;;;;;;;;;40.00;31.75;;;;;7.06;75.26;102057.03;4863955;29;45656;-54
2022/01/19 18:49:01;;;;;;;;;37.00;31.75;;;;;6.92;74.75;102047.50;4874860;29;45458;-55
2022/01/19 18:51:27;;;;;;;;;42.40;31.80;;;;;6.95;75.41;102058.13;4873068;29;46699;-54
2022/01/19 18:53:52;;;;;;;;;39.40;34.20;;;;;7.00;74.89;102068.56;4888880;29;45927;-48
2022/01/19 18:56:18;;;;;;;;;36.75;33.50;;;;;6.95;75.18;102065.44;4893227;29;45403;-50
2022/01/19 18:58:44;;;;;;;;;34.00;28.75;;;;;6.99;75.80;102072.31;4875717;29;45605;-51
2022/01/19 19:01:09;;;;;;;;;32.25;27.00;;;;;6.96;75.69;102069.88;4875077;29;45972;-53
2022/01/19 19:03:35;;;;;;;;;45.00;38.50;;;;;6.99;75.82;102070.44;4877568;29;45856;-55
2022/01/19 19:06:00;;;;;;;;;34.50;34.50;;;;;7.01;76.50;102073.88;4866833;29;45571;-48
2022/01/19 19:08:26;;;;;;;;;43.75;35.00;;;;;7.04;76.72;102073.56;4856456;29;45520;-50
2022/01/19 19:11:03;;;;;;;;;40.00;33.50;;;;;7.07;76.52;102066.94;4857479;29;45450;-52
2022/01/19 19:13:29;;;;;;;;;38.20;36.20;;;;;7.08;76.79;102060.44;4857202;29;45881;-49
2022/01/19 19:15:56;;;;;;;;;36.50;26.75;;;;;6.88;76.41;102033.31;4872701;29;45487;-51
2022/01/19 19:18:21;;;;;;;;;37.80;31.40;;;;;7.07;77.15;102069.66;4841366;28;45684;-54
2022/01/19 19:20:47;;;;;;;;;38.50;33.50;;;;;6.83;76.68;102037.53;4860695;29;45767;-53
2022/01/19 19:23:16;;;;;;;;;38.25;32.50;;;;;7.06;76.89;102076.13;4865653;28;45456;-54
2022/01/19 19:25:43;;;;;;;;;34.80;30.20;;;;;6.97;76.93;102063.41;4876630;29;45606;-53
2022/01/19 19:28:10;;;;;;;;;37.80;32.00;;;;;6.94;77.06;102061.00;4862577;29;45382;-51
2022/01/19 19:30:35;;;;;;;;;32.40;30.60;;;;;6.77;77.54;102037.13;4872661;29;45803;-48
2022/01/19 19:33:01;;;;;;;;;42.50;35.75;;;;;6.86;77.57;102069.94;4857506;29;45404;-51